Maples, Missouri
Current Conditions -  °F | °C
As of 1:58 PM on Friday 21 Nov 2014 (Local Time) from KTBN Reporting Station
Overcast Overcast  
Wind Chill: 38°   Ceiling: 1900
Heat Index: 45°   Visibility: 10mi
Dew Point: 30°   Wind: 13mph
Humidity: 57%   Direction: 150°SSE
Pressure: 30.21"   Gusts: NA
Location:  37.5023°N, 91.4546°W
Report Text: KTBN 211958Z AUTO 15011KT 10SM BKN019 OVC026 07/M01 A3021 RMK AO2 SLP241
Loading
Personal Weather Stations






























Interactive Weather Map New forecast layout! Learn more

10-Day Weather Forecast

Advertisements
Track Severe Weather on mobile